DW1549 Fauske NO current weather conditions

sailwx.info

Wind from 024

Air temperature 2.2° C
Dewpoint 0.8° C

Last reported at 2015-May-25 02:49 UTC.
Time now 2015-May-25 03:32 UTC

Location: N 67°16' E 015°25'.
View on Google Maps.

See reports from other nearby stations

  
Tides and Currents Weather Stations Pressure Air Temp Water Temp Dewpoint Dewpoint Depression Visibility Wind Speed Wind Dir Waves Ship Positions
date/time (UTC)wind fromknots sea level pressurealtimeterstation pressurevisibilityair tempwater tempwave heightnotes
2015-May-25 02:49 024 2.2
2015-May-25 02:39 024 2.2
2015-May-25 02:29 024 1.7
2015-May-25 02:19 024 1.7
2015-May-25 02:09 024 1.7
2015-May-25 01:59 024 1.7
2015-May-25 01:49 024 1.7
2015-May-25 01:39 024 2.2
2015-May-25 01:29 024 2.2
2015-May-25 01:19 024 2.2
2015-May-25 01:09 024 2.8
2015-May-25 00:59 024 2.8
2015-May-25 00:49 024 2.8
2015-May-25 00:39 024 3.3
2015-May-25 00:29 024 3.3
2015-May-25 00:19 024 3.3
2015-May-25 00:09 024 3.9
2015-May-24 23:59 026 3.9
2015-May-24 23:49 027 1 gusting 6 4.4
2015-May-24 23:39 024 0 gusting 4 4.4
2015-May-24 23:29 024 1 gusting 7 4.4
2015-May-24 23:19 019 1 gusting 5 4.4
2015-May-24 23:09 011 1 gusting 6 5.0
2015-May-24 22:59 011 1 gusting 6 5.0
2015-May-24 22:49 004 2 gusting 4 5.0
2015-May-24 22:39 002 0 gusting 2 5.6
2015-May-24 22:29 002 5.6
2015-May-24 22:19 002 5.6
2015-May-24 22:09 002 6.1
2015-May-24 21:59 002 6.1
2015-May-24 21:49 002 1 gusting 4 6.1
2015-May-24 21:39 338 6.7
2015-May-24 21:29 338 6.7
2015-May-24 21:19 338 0 gusting 2 6.7
2015-May-24 21:09 338 0 gusting 2 6.7
2015-May-24 20:59 324 0 gusting 2 6.7
2015-May-24 20:49 324 0 gusting 2 6.7
2015-May-24 20:39 324 6.7
2015-May-24 20:29 324 7.2
2015-May-24 20:19 324 7.2
2015-May-24 20:09 324 7.2
2015-May-24 19:59 324 7.8
2015-May-24 19:49 324 7.8
2015-May-24 19:39 322 0 gusting 2 7.8
2015-May-24 19:29 318 8.3
2015-May-24 19:19 318 8.3
2015-May-24 19:09 317 0 gusting 2 8.3
2015-May-24 18:59 314 8.3
2015-May-24 18:49 313 1 gusting 6 8.3
2015-May-24 18:39 257 0 gusting 6 8.3
2015-May-24 18:29 221 0 gusting 6 8.3
2015-May-24 18:19 217 1 gusting 6 8.3
2015-May-24 18:09 244 0 gusting 5 8.9
2015-May-24 17:59 231 1 gusting 6 8.9
2015-May-24 17:49 249 1 gusting 5 9.4
2015-May-24 17:39 232 1 gusting 7 9.4
2015-May-24 17:29 234 1 gusting 7 9.4
2015-May-24 17:19 216 2 gusting 6 10.0
2015-May-24 17:09 225 3 gusting 8 10.6
2015-May-24 16:59 207 2 gusting 6 10.6
2015-May-24 16:39 204 2 gusting 8 10.0
2015-May-24 16:29 234 2 gusting 7 10.6
2015-May-24 16:19 222 1 gusting 4 10.6
2015-May-24 15:59 235 2 gusting 5 10.0
2015-May-24 15:49 250 10.6
2015-May-24 15:39 266 10.6
2015-May-24 15:19 280 10.0
2015-May-24 15:09 261 1 gusting 2 10.0
2015-May-24 14:59 261 1 gusting 6 10.6
2015-May-24 14:49 272 1 gusting 10 11.1
2015-May-24 14:39 216 3 gusting 6 11.7
2015-May-24 14:29 060 0 gusting 2 11.7
2015-May-24 14:19 336 0 gusting 5 11.7
2015-May-24 14:09 009 4 gusting 10 11.7
2015-May-24 13:59 195 4 gusting 10 10.6
2015-May-24 13:49 232 3 gusting 7 10.0
2015-May-24 13:39 213 4 gusting 10 11.1
2015-May-24 13:29 255 4 gusting 8 11.7
2015-May-24 13:19 236 0 gusting 4 11.1
2015-May-24 13:09 250 1 gusting 7 10.6
2015-May-24 12:59 203 5 gusting 8 10.6
2015-May-24 12:49 207 4 gusting 8 11.1
2015-May-24 12:39 200 2 gusting 7 10.6
2015-May-24 12:29 225 4 gusting 10 9.4
2015-May-24 12:19 238 5 gusting 10 9.4
2015-May-24 12:09 250 3 gusting 10 10.0
2015-May-24 11:59 234 2 gusting 11 9.4
2015-May-24 11:49 232 3 gusting 10 10.0
2015-May-24 11:39 210 2 gusting 10 10.0
2015-May-24 11:29 208 4 gusting 10 9.4
2015-May-24 11:19 214 2 gusting 8 8.9
2015-May-24 11:09 235 3 gusting 8 8.3
2015-May-24 10:59 251 0 gusting 6 8.3
2015-May-24 10:49 212 1 gusting 7 8.3
2015-May-24 10:39 237 5 gusting 10 8.9
2015-May-24 10:29 244 4 gusting 10 8.9
2015-May-24 10:19 215 2 gusting 10 8.9
2015-May-24 10:09 242 4 gusting 10 8.9
2015-May-24 09:59 222 4 gusting 7 8.3
2015-May-24 09:49 233 3 gusting 8 8.3
2015-May-24 09:39 233 1 gusting 11 7.8
2015-May-24 09:29 229 4 gusting 10 7.8
2015-May-24 09:19 219 2 gusting 10 8.3
2015-May-24 09:09 208 2 gusting 10 8.3
2015-May-24 08:59 235 4 gusting 8 8.9
2015-May-24 08:49 238 2 gusting 8 8.3
2015-May-24 08:39 245 2 gusting 8 8.3
2015-May-24 08:29 256 0 gusting 10 8.3
2015-May-24 08:19 285 0 gusting 5 8.3
2015-May-24 08:09 294 0 gusting 8 8.3
2015-May-24 07:59 243 0 gusting 6 8.3
2015-May-24 07:49 270 1 gusting 12 9.4
2015-May-24 07:28 033 2 gusting 8 9.4
2015-May-24 07:18 303 1 gusting 8 8.9
2015-May-24 07:08 285 0 gusting 7 7.2
2015-May-24 06:58 236 7.2
2015-May-24 06:48 247 1 gusting 6 7.8
2015-May-24 06:38 255 2 gusting 8 7.8
2015-May-24 06:28 249 0 gusting 6 7.2
2015-May-24 06:18 246 2 gusting 7 7.2
2015-May-24 06:08 235 5 gusting 8 7.2
2015-May-24 05:58 243 1 gusting 10 7.2
2015-May-24 05:48 244 3 gusting 6 7.2
2015-May-24 05:38 243 1 gusting 5 6.7
2015-May-24 05:28 226 0 gusting 5 6.7
2015-May-24 05:18 279 0 gusting 2 6.1
2015-May-24 05:08 334 5.6
2015-May-24 04:58 335 0 gusting 5 5.6
2015-May-24 04:48 280 5.6
2015-May-24 04:38 280 5.6
2015-May-24 04:28 280 5.0
2015-May-24 04:18 280 5.0
2015-May-24 04:08 280 5.0
2015-May-24 03:58 280 5.0
2015-May-24 03:48 286 5.0
2015-May-24 03:38 286 5.0
2015-May-24 03:28 286 5.0
2015-May-24 03:18 286 5.0
2015-May-24 03:08 286 5.0
2015-May-24 02:58 232 5.0
2015-May-24 02:48 232 5.0
2015-May-24 02:38 232 5.0
2015-May-24 02:28 232 5.0
2015-May-24 02:18 232 5.0
2015-May-24 02:08 232 4.4
2015-May-24 01:58 232 4.4
2015-May-24 01:48 232 4.4
2015-May-24 01:38 232 4.4
2015-May-24 01:28 232 4.4
2015-May-24 01:18 232 4.4
2015-May-24 01:08 232 4.4
2015-May-24 00:58 232 4.4
2015-May-24 00:48 232 4.4
2015-May-24 00:38 232 4.4
2015-May-24 00:28 309 3.9
2015-May-24 00:18 041 3.9
2015-May-24 00:08 041 3.9
2015-May-23 23:58 041 3.9
2015-May-23 23:48 041 3.9
2015-May-23 23:38 041 3.9
2015-May-23 23:28 041 3.9
2015-May-23 23:18 041 3.9
2015-May-23 23:08 041 3.9
2015-May-23 22:58 041 0 gusting 2 3.9
2015-May-23 22:48 033 1 gusting 5 3.9
2015-May-23 22:38 356 0 gusting 4 3.9
2015-May-23 22:28 322 0 gusting 2 3.9
2015-May-23 22:18 318 3.9
2015-May-23 22:08 297 3.9
2015-May-23 21:58 011 3.9
2015-May-23 21:48 011 3.9
2015-May-23 21:38 011 3.9
2015-May-23 21:28 011 3.9
2015-May-23 21:18 011 3.9
2015-May-23 21:08 011 3.9
2015-May-23 20:58 011 3.9
2015-May-23 20:48 348 3.9
2015-May-23 20:38 348 3.9
2015-May-23 20:28 288 1 gusting 6 3.9
2015-May-23 20:18 357 0 gusting 5 4.4
2015-May-23 20:08 315 1 gusting 13 5.0
2015-May-23 19:58 249 5 gusting 13 5.0
2015-May-23 19:48 288 5 gusting 12 5.0
2015-May-23 19:38 247 3 gusting 14 5.0
2015-May-23 19:28 247 4 gusting 13 5.0
2015-May-23 19:18 253 4 gusting 11 5.0
2015-May-23 19:08 248 5.0
2015-May-23 18:58 260 7 gusting 15 5.0
2015-May-23 18:48 249 4 gusting 14 4.4
2015-May-23 18:38 253 4 gusting 13 4.4
2015-May-23 18:28 231 5 gusting 13 4.4
2015-May-23 18:18 236 4 gusting 14 5.0
2015-May-23 18:08 236 6 gusting 14 4.4
2015-May-23 17:58 308 0 gusting 12 4.4
2015-May-23 17:48 252 6 gusting 15 5.0
2015-May-23 17:38 249 7 gusting 17 5.0
2015-May-23 17:28 253 7 gusting 19 5.0
2015-May-23 17:18 209 6 gusting 14 5.6
2015-May-23 17:08 231 4 gusting 18 6.1
2015-May-23 16:58 232 5 gusting 17 6.7
2015-May-23 16:48 237 6 gusting 14 7.2
2015-May-23 16:38 237 5 gusting 13 7.2
2015-May-23 16:18 253 5 gusting 15 7.8
2015-May-23 16:08 254 2 gusting 13 7.8
2015-May-23 15:58 233 6 gusting 10 7.8
2015-May-23 15:48 252 5 gusting 12 7.2
2015-May-23 15:38 237 1 gusting 6 7.2
2015-May-23 15:28 235 5 gusting 10 7.2
2015-May-23 15:18 227 2 gusting 12 7.2
2015-May-23 15:08 235 2 gusting 8 7.2
2015-May-23 14:58 242 5 gusting 12 7.2
2015-May-23 14:48 228 4 gusting 12 7.8
2015-May-23 14:38 231 5 gusting 12 7.8
2015-May-23 14:28 242 6 gusting 17 8.3
2015-May-23 14:18 223 6 gusting 13 8.3
2015-May-23 14:08 244 2 gusting 11 8.3
2015-May-23 13:58 199 3 gusting 10 7.2
2015-May-23 13:38 252 4 gusting 11 6.1
2015-May-23 13:28 261 1 gusting 11 6.1
2015-May-23 13:18 248 6 gusting 12 6.1
2015-May-23 13:08 240 2 gusting 10 6.1
2015-May-23 12:58 241 2 gusting 8 6.1
2015-May-23 12:48 251 2 gusting 11 5.6
2015-May-23 12:38 258 2 gusting 12 5.6
2015-May-23 12:28 254 4 gusting 14 5.6
2015-May-23 12:18 246 6 gusting 17 6.1
2015-May-23 12:08 284 2 gusting 8 7.2
2015-May-23 11:58 253 2 gusting 5 7.8
2015-May-23 11:48 306 2 gusting 8 8.3
2015-May-23 11:38 222 2 gusting 10 8.9
2015-May-23 11:28 245 6 gusting 11 8.9
2015-May-23 11:18 228 4 gusting 8 8.9
2015-May-23 11:08 224 4 gusting 10 8.3
2015-May-23 10:58 260 5 gusting 10 8.3
2015-May-23 10:48 253 6 gusting 12 7.2
2015-May-23 10:38 266 6 gusting 13 7.8
2015-May-23 10:28 249 6 gusting 15 8.9
2015-May-23 10:18 241 4 gusting 10 9.4
2015-May-23 09:58 214 2 gusting 10 8.9
2015-May-23 09:38 234 0 gusting 2 7.2
2015-May-23 09:28 247 6.7
2015-May-23 09:08 212 2 gusting 8 6.7
2015-May-23 08:48 240 5.6
2015-May-23 08:38 238 2 gusting 15 6.1
2015-May-23 08:28 257 2 gusting 10 6.7
2015-May-23 08:18 243 4 gusting 8 7.2
2015-May-23 08:08 222 2 gusting 7 6.1
2015-May-23 07:58 247 6.1
2015-May-23 07:48 228 0 gusting 6 6.1
2015-May-23 07:38 236 3 gusting 6 5.6
2015-May-23 07:28 220 0 gusting 4 5.6
2015-May-23 07:18 228 2 gusting 8 5.0
2015-May-23 06:58 241 2 gusting 10 5.0
2015-May-23 06:48 255 4 gusting 10 5.6
2015-May-23 06:38 274 1 gusting 7 5.6
2015-May-23 06:28 243 4 gusting 10 6.1
2015-May-23 06:18 248 4 gusting 8 6.1
2015-May-23 06:08 246 4 gusting 7 6.1
2015-May-23 05:58 241 5 gusting 10 5.6
2015-May-23 05:48 232 2 gusting 6 5.6
2015-May-23 05:38 244 4 gusting 8 5.6
2015-May-23 05:28 262 1 gusting 6 5.0
2015-May-23 05:18 255 1 gusting 6 5.0
2015-May-23 05:08 242 2 gusting 6 5.0
2015-May-23 04:58 024 5.0
2015-May-23 04:48 024 5.0
2015-May-23 04:38 024 5.0
2015-May-23 04:28 024 4.4
2015-May-23 04:18 024 4.4
2015-May-23 04:08 024 4.4
2015-May-23 03:58 024 4.4
2015-May-23 03:48 024 4.4
2015-May-23 03:38 024 4.4
2015-May-23 03:28 024 4.4
2015-May-23 03:18 024 4.4
2015-May-23 03:08 024 4.4